createdAt,value
2023-03-23T15:58:29.176Z,14.30
2023-03-23T16:01:04.757Z,14.50
2023-03-23T16:03:45.872Z,14.50
2023-03-23T16:06:25.388Z,14.50
2023-03-23T16:09:00.788Z,14.60
2023-03-23T16:11:31.315Z,14.50
2023-03-23T16:14:06.736Z,14.50
2023-03-23T16:16:44.690Z,14.60
2023-03-23T16:19:15.010Z,14.60
2023-03-23T16:21:51.755Z,14.50
2023-03-23T16:24:21.166Z,14.50
2023-03-23T16:26:49.753Z,14.50
2023-03-23T16:29:46.837Z,14.40
2023-03-23T16:32:14.321Z,14.40
2023-03-23T16:34:49.835Z,14.30
2023-03-23T16:37:19.775Z,14.20
2023-03-23T16:39:54.734Z,14.30
2023-03-23T16:42:23.080Z,14.30
2023-03-23T16:44:58.732Z,14.30
2023-03-23T16:47:33.783Z,14.30
2023-03-23T16:50:03.771Z,14.30
2023-03-23T16:52:46.412Z,14.30
2023-03-23T16:55:23.704Z,14.30
2023-03-23T16:57:54.149Z,14.30
2023-03-23T17:00:33.769Z,14.30
2023-03-23T17:03:08.844Z,14.30
2023-03-23T17:05:38.864Z,14.40
2023-03-23T17:08:15.756Z,14.30
2023-03-23T17:10:57.786Z,14.30
2023-03-23T17:13:28.007Z,14.30
2023-03-23T17:16:04.734Z,14.30
2023-03-23T17:18:39.779Z,14.20
2023-03-23T17:21:09.133Z,14.10
2023-03-23T17:23:45.787Z,14.10
2023-03-23T17:26:14.435Z,14.10
2023-03-23T17:28:43.050Z,14.00
2023-03-23T17:31:18.041Z,14.00
2023-03-23T17:33:46.859Z,13.90
2023-03-23T17:36:21.802Z,13.90
2023-03-23T17:38:58.801Z,13.90
2023-03-23T17:41:27.605Z,13.90
2023-03-23T17:44:03.762Z,13.90
2023-03-23T17:46:39.022Z,13.80
2023-03-23T17:49:07.844Z,13.80
2023-03-23T17:51:44.543Z,13.80
2023-03-23T17:54:21.117Z,13.80
2023-03-23T17:56:50.200Z,13.80
2023-03-23T17:59:24.827Z,13.80
2023-03-23T18:01:54.277Z,13.80
2023-03-23T18:04:30.192Z,13.80
2023-03-23T18:07:06.823Z,13.90
2023-03-23T18:09:45.283Z,13.90
2023-03-23T18:12:26.889Z,13.90
2023-03-23T18:15:05.145Z,13.90
2023-03-23T18:17:33.873Z,13.90
2023-03-23T18:20:09.764Z,13.90
2023-03-23T18:22:45.083Z,13.90
2023-03-23T18:25:15.897Z,13.90
2023-03-23T18:27:51.018Z,13.90
2023-03-23T18:30:20.843Z,13.80
2023-03-23T18:32:53.941Z,13.80
2023-03-23T18:35:28.877Z,13.80
2023-03-23T18:37:57.423Z,13.80
2023-03-23T18:40:34.153Z,13.80
2023-03-23T18:43:08.905Z,13.80
2023-03-23T18:45:39.191Z,13.90
2023-03-23T18:48:15.870Z,13.90
2023-03-23T18:50:55.892Z,13.80
2023-03-23T18:53:25.111Z,13.80
2023-03-23T18:56:01.887Z,13.80
2023-03-23T18:58:36.889Z,13.80
2023-03-23T19:01:07.416Z,13.80
2023-03-23T19:03:42.994Z,13.90
2023-03-23T19:06:23.852Z,13.90
2023-03-23T19:08:59.766Z,13.90
2023-03-23T19:11:36.121Z,13.90
2023-03-23T19:14:11.928Z,13.90
2023-03-23T19:16:41.440Z,13.80
2023-03-23T19:19:16.878Z,13.80
2023-03-23T19:21:53.419Z,13.80
2023-03-23T19:24:23.022Z,13.80
2023-03-23T19:26:59.933Z,13.70
2023-03-23T19:29:28.491Z,13.70
2023-03-23T19:32:07.251Z,13.60
2023-03-23T19:34:42.818Z,13.60
2023-03-23T19:37:12.705Z,13.60
2023-03-23T19:39:48.220Z,13.50
2023-03-23T19:42:20.482Z,13.60
2023-03-23T19:44:57.363Z,13.50
2023-03-23T19:47:25.990Z,13.50
2023-03-23T19:50:02.933Z,13.50
2023-03-23T19:52:31.562Z,13.40
2023-03-23T19:55:06.919Z,13.40
2023-03-23T19:57:37.334Z,13.40
2023-03-23T20:00:13.913Z,13.40
2023-03-23T20:02:48.959Z,13.30
2023-03-23T20:05:17.838Z,13.30
2023-03-23T20:07:52.883Z,13.30
2023-03-23T20:10:42.262Z,13.30
2023-03-23T20:13:14.070Z,13.30
2023-03-23T20:15:49.127Z,13.30
2023-03-23T20:18:18.849Z,13.30
2023-03-23T20:20:55.022Z,13.20
2023-03-23T20:23:31.267Z,13.20
2023-03-23T20:26:00.838Z,13.20
2023-03-23T20:28:38.174Z,13.20
2023-03-23T20:31:19.971Z,13.10
2023-03-23T20:34:01.172Z,13.10
2023-03-23T20:36:41.192Z,13.00
2023-03-23T20:39:11.943Z,13.00
2023-03-23T20:41:47.969Z,13.00
2023-03-23T20:44:18.963Z,12.90
2023-03-23T20:46:56.057Z,12.90
2023-03-23T20:49:34.279Z,12.80
2023-03-23T20:52:03.319Z,12.80
2023-03-23T20:54:38.980Z,12.80
2023-03-23T20:57:15.041Z,12.70
2023-03-23T20:59:45.344Z,12.70
2023-03-23T21:02:23.072Z,12.60
2023-03-23T21:04:59.945Z,12.60
2023-03-23T21:07:28.552Z,12.50
2023-03-23T21:10:11.948Z,12.50
2023-03-23T21:12:47.484Z,12.40
2023-03-23T21:15:24.047Z,12.40
2023-03-23T21:17:59.103Z,12.30
2023-03-23T21:20:28.033Z,12.30
2023-03-23T21:23:02.987Z,12.30
2023-03-23T21:25:38.040Z,12.20
2023-03-23T21:28:09.074Z,12.20
2023-03-23T21:30:48.209Z,12.10
2023-03-23T21:33:17.512Z,12.10
2023-03-23T21:35:45.970Z,12.10
2023-03-23T21:38:21.933Z,12.10
2023-03-23T21:40:50.947Z,12.10
2023-03-23T21:43:20.477Z,12.00
2023-03-23T21:45:57.029Z,12.00
2023-03-23T21:48:27.285Z,12.00
2023-03-23T21:51:03.252Z,12.00
2023-03-23T21:53:41.009Z,11.90
2023-03-23T21:56:11.784Z,12.00
2023-03-23T21:58:47.009Z,11.90
2023-03-23T22:01:24.048Z,11.90
2023-03-23T22:03:53.322Z,11.90
2023-03-23T22:06:33.090Z,11.90
2023-03-23T22:09:09.030Z,11.90
2023-03-23T22:11:44.955Z,11.90
2023-03-23T22:14:21.039Z,11.90
2023-03-23T22:16:59.351Z,11.90
2023-03-23T22:19:28.130Z,11.90
2023-03-23T22:22:03.062Z,11.90
2023-03-23T22:24:39.018Z,11.90
2023-03-23T22:27:07.866Z,11.90
2023-03-23T22:29:43.266Z,11.90
2023-03-23T22:32:20.066Z,11.90
2023-03-23T22:34:49.477Z,11.90
2023-03-23T22:37:25.336Z,11.90
2023-03-23T22:39:54.414Z,11.90
2023-03-23T22:42:23.475Z,11.90
2023-03-23T22:44:59.470Z,12.00
2023-03-23T22:47:29.558Z,12.00
2023-03-23T22:50:05.397Z,12.00
2023-03-23T22:52:43.065Z,12.00
2023-03-23T22:55:11.392Z,12.00
2023-03-23T22:57:47.110Z,12.00
2023-03-23T23:00:22.102Z,12.00
2023-03-23T23:02:52.285Z,12.00
2023-03-23T23:05:27.441Z,12.00
2023-03-23T23:07:56.069Z,12.00
2023-03-23T23:10:38.103Z,12.00
2023-03-23T23:13:13.133Z,12.00
2023-03-23T23:15:44.172Z,12.00
2023-03-23T23:18:21.084Z,12.00
2023-03-23T23:20:51.161Z,12.00
2023-03-23T23:23:26.085Z,12.00
2023-03-23T23:26:01.146Z,12.10
2023-03-23T23:28:30.440Z,12.10
2023-03-23T23:31:06.249Z,12.10
2023-03-23T23:33:36.500Z,12.10
2023-03-23T23:36:12.089Z,12.10
2023-03-23T23:38:40.736Z,12.10
2023-03-23T23:41:17.217Z,12.10
2023-03-23T23:43:52.304Z,12.10
2023-03-23T23:46:21.065Z,12.10
2023-03-23T23:48:58.197Z,12.10
2023-03-23T23:51:34.154Z,12.10
2023-03-23T23:54:02.729Z,12.10
2023-03-23T23:56:38.508Z,12.20
2023-03-23T23:59:14.113Z,12.20
